createdAt,value
2018-09-18T00:01:54.454Z,13.40
2018-09-18T00:04:24.865Z,13.30
2018-09-18T00:06:55.217Z,13.30
2018-09-18T00:09:26.273Z,13.30
2018-09-18T00:11:56.646Z,13.20
2018-09-18T00:14:26.917Z,13.20
2018-09-18T00:16:57.254Z,13.10
2018-09-18T00:19:27.651Z,13.10
2018-09-18T00:21:57.969Z,13.10
2018-09-18T00:24:28.294Z,13.10
2018-09-18T00:26:58.602Z,13.10
2018-09-18T00:29:28.849Z,13.10
2018-09-18T00:31:59.140Z,13.10
2018-09-18T00:34:29.411Z,13.10
2018-09-18T00:36:59.730Z,13.00
2018-09-18T00:39:30.038Z,13.00
2018-09-18T00:42:00.320Z,13.00
2018-09-18T00:44:30.644Z,13.00
2018-09-18T00:47:00.946Z,13.00
2018-09-18T00:49:31.619Z,12.90
2018-09-18T00:52:01.904Z,12.90
2018-09-18T00:54:32.224Z,12.90
2018-09-18T00:57:02.531Z,12.90
2018-09-18T00:59:32.834Z,12.90
2018-09-18T01:02:03.489Z,12.80
2018-09-18T01:04:33.821Z,12.80
2018-09-18T01:07:04.413Z,12.80
2018-09-18T01:09:34.725Z,12.80
2018-09-18T01:12:05.026Z,12.80
2018-09-18T01:14:36.659Z,12.70
2018-09-18T01:17:07.093Z,12.70
2018-09-18T01:19:37.392Z,12.70
2018-09-18T01:22:07.893Z,12.70
2018-09-18T01:24:38.205Z,12.70
2018-09-18T01:27:08.521Z,12.70
2018-09-18T01:29:38.795Z,12.70
2018-09-18T01:32:09.146Z,12.70
2018-09-18T01:34:39.456Z,12.70
2018-09-18T01:37:09.750Z,12.60
2018-09-18T01:39:42.165Z,12.60
2018-09-18T01:42:12.408Z,12.60
2018-09-18T01:44:42.686Z,12.60
2018-09-18T01:47:12.958Z,12.60
2018-09-18T01:49:43.413Z,12.60
2018-09-18T01:52:13.710Z,12.60
2018-09-18T01:54:44.049Z,12.60
2018-09-18T01:57:14.379Z,12.50
2018-09-18T01:59:44.717Z,12.50
2018-09-18T02:02:14.993Z,12.50
2018-09-18T02:04:45.320Z,12.40
2018-09-18T02:07:15.653Z,12.40
2018-09-18T02:09:46.049Z,12.40
2018-09-18T02:12:16.342Z,12.30
2018-09-18T02:14:46.743Z,12.30
2018-09-18T02:17:17.072Z,12.30
2018-09-18T02:19:47.368Z,12.30
2018-09-18T02:22:17.690Z,12.30
2018-09-18T02:24:47.994Z,12.30
2018-09-18T02:27:18.291Z,12.30
2018-09-18T02:29:48.569Z,12.30
2018-09-18T02:32:18.878Z,12.30
2018-09-18T02:34:49.172Z,12.30
2018-09-18T02:37:19.505Z,12.30
2018-09-18T02:39:49.780Z,12.30
2018-09-18T02:42:20.857Z,12.30
2018-09-18T02:44:51.620Z,12.30
2018-09-18T02:47:21.920Z,12.30
2018-09-18T02:49:52.287Z,12.30
2018-09-18T02:52:22.668Z,12.30
2018-09-18T02:54:52.965Z,12.30
2018-09-18T02:57:23.285Z,12.20
2018-09-18T02:59:53.581Z,12.20
2018-09-18T03:02:23.912Z,12.20
2018-09-18T03:04:54.218Z,12.20
2018-09-18T03:07:24.566Z,12.20
2018-09-18T03:09:54.830Z,12.20
2018-09-18T03:12:25.168Z,12.10
2018-09-18T03:14:55.435Z,12.10
2018-09-18T03:17:25.849Z,12.10
2018-09-18T03:19:56.198Z,12.00
2018-09-18T03:22:26.549Z,12.10
2018-09-18T03:24:56.897Z,12.00
2018-09-18T03:27:27.281Z,12.00
2018-09-18T03:29:57.545Z,12.00
2018-09-18T03:32:27.899Z,12.00
2018-09-18T03:34:58.162Z,12.00
2018-09-18T03:37:28.482Z,12.00
2018-09-18T03:39:58.737Z,12.00
2018-09-18T03:42:29.028Z,11.90
2018-09-18T03:44:59.329Z,11.90
2018-09-18T03:47:29.650Z,11.90
2018-09-18T03:49:59.911Z,11.90
2018-09-18T03:52:30.207Z,11.90
2018-09-18T03:55:00.513Z,11.90
2018-09-18T03:57:31.697Z,11.90
2018-09-18T04:00:01.994Z,11.80
2018-09-18T04:02:32.256Z,11.80
2018-09-18T04:05:02.620Z,11.70
2018-09-18T04:07:33.018Z,11.70
2018-09-18T04:10:03.435Z,11.70
2018-09-18T04:12:33.837Z,11.70
2018-09-18T04:15:04.940Z,11.70
2018-09-18T04:17:35.452Z,11.70
2018-09-18T04:20:05.917Z,11.70
2018-09-18T04:22:36.232Z,11.70
2018-09-18T04:25:06.513Z,11.70
2018-09-18T04:27:36.941Z,11.70
2018-09-18T04:30:07.440Z,11.60
2018-09-18T04:32:37.876Z,11.70
2018-09-18T04:35:08.248Z,11.70
2018-09-18T04:37:38.592Z,11.60
2018-09-18T04:40:09.137Z,11.60
2018-09-18T04:42:39.445Z,11.60
2018-09-18T04:45:09.761Z,11.60
2018-09-18T04:47:40.020Z,11.60
2018-09-18T04:50:10.333Z,11.60
2018-09-18T04:52:40.616Z,11.60
2018-09-18T04:55:11.010Z,11.60
2018-09-18T04:57:41.403Z,11.60
2018-09-18T05:00:11.762Z,11.50
2018-09-18T05:02:42.033Z,11.60
2018-09-18T05:05:12.295Z,11.60
2018-09-18T05:07:42.623Z,11.60
2018-09-18T05:10:12.931Z,11.60
2018-09-18T05:12:43.300Z,11.70
2018-09-18T05:15:13.636Z,11.70
2018-09-18T05:17:43.906Z,11.70
2018-09-18T05:20:14.205Z,11.70
2018-09-18T05:22:44.481Z,11.70
2018-09-18T05:25:14.853Z,11.80
2018-09-18T05:27:45.299Z,11.80
2018-09-18T05:30:15.592Z,11.80
2018-09-18T05:32:45.940Z,11.90
2018-09-18T05:35:16.297Z,11.90
2018-09-18T05:37:46.601Z,12.00
2018-09-18T05:40:16.907Z,12.00
2018-09-18T05:42:47.220Z,12.10
2018-09-18T05:45:17.770Z,12.10
2018-09-18T05:47:48.078Z,12.20
2018-09-18T05:50:18.383Z,12.20
2018-09-18T05:52:48.668Z,11.30
2018-09-18T05:55:19.036Z,12.30
2018-09-18T05:57:49.304Z,12.40
2018-09-18T06:00:19.641Z,12.50
2018-09-18T06:02:50.031Z,12.50
2018-09-18T06:05:20.457Z,12.60
2018-09-18T06:07:50.779Z,12.60
2018-09-18T06:10:21.025Z,12.70
2018-09-18T06:12:51.369Z,12.70
2018-09-18T06:15:22.734Z,12.80
2018-09-18T06:17:53.093Z,12.80
2018-09-18T06:20:23.408Z,12.90
2018-09-18T06:22:53.747Z,13.00
2018-09-18T06:25:24.060Z,13.00
2018-09-18T06:27:54.408Z,13.10
2018-09-18T06:30:24.734Z,13.10
2018-09-18T06:32:55.109Z,13.20
2018-09-18T06:35:25.457Z,13.30
2018-09-18T06:37:56.402Z,13.40
2018-09-18T06:40:26.778Z,13.40
2018-09-18T06:42:57.481Z,13.50
2018-09-18T06:45:27.776Z,13.60
2018-09-18T06:47:58.239Z,13.60
2018-09-18T06:50:29.389Z,13.70
2018-09-18T06:52:59.679Z,13.80
2018-09-18T06:55:30.090Z,13.90
2018-09-18T06:58:00.451Z,13.90
2018-09-18T07:00:30.718Z,14.10
2018-09-18T07:03:01.853Z,14.20
2018-09-18T07:05:33.211Z,14.30
2018-09-18T07:08:03.589Z,14.40
2018-09-18T07:10:33.949Z,14.40
2018-09-18T07:13:04.369Z,14.50
2018-09-18T07:15:34.716Z,14.60
2018-09-18T07:18:05.035Z,14.70
2018-09-18T07:20:35.364Z,14.80
2018-09-18T07:23:05.898Z,14.90
2018-09-18T07:25:36.356Z,15.00
2018-09-18T07:28:06.778Z,15.00
2018-09-18T07:30:37.109Z,15.10
2018-09-18T07:33:07.408Z,15.20
2018-09-18T07:35:37.881Z,15.30
2018-09-18T07:38:08.262Z,15.40
2018-09-18T07:40:38.628Z,15.50
2018-09-18T07:43:08.918Z,15.60
2018-09-18T07:45:39.221Z,15.70
2018-09-18T07:48:09.533Z,15.70
2018-09-18T07:50:39.915Z,15.80
2018-09-18T07:53:11.324Z,15.90
2018-09-18T07:55:41.747Z,16.00
2018-09-18T07:58:12.065Z,16.00
2018-09-18T08:00:42.430Z,16.00
2018-09-18T08:03:13.042Z,16.10
2018-09-18T08:05:44.006Z,16.20
2018-09-18T08:08:14.318Z,16.30
2018-09-18T08:10:44.725Z,16.40
2018-09-18T08:13:15.107Z,16.50
2018-09-18T08:15:45.820Z,16.60
2018-09-18T08:18:16.200Z,16.70
2018-09-18T08:20:46.526Z,16.80
2018-09-18T08:23:17.135Z,17.00
2018-09-18T08:25:47.473Z,17.10
2018-09-18T08:28:17.681Z,17.20
2018-09-18T08:30:48.050Z,17.30
2018-09-18T08:33:18.333Z,17.40
2018-09-18T08:35:48.685Z,17.50
2018-09-18T08:38:18.960Z,17.60
2018-09-18T08:40:49.354Z,17.80
2018-09-18T08:43:19.658Z,17.90
2018-09-18T08:45:50.143Z,18.00
2018-09-18T08:48:20.438Z,18.10
2018-09-18T08:50:50.855Z,18.20
2018-09-18T08:53:21.208Z,18.30
2018-09-18T08:55:51.588Z,18.40
2018-09-18T08:58:21.959Z,18.50
2018-09-18T09:00:52.377Z,18.60
2018-09-18T09:03:22.701Z,18.70
2018-09-18T09:05:53.108Z,18.70
2018-09-18T09:08:24.174Z,18.80
2018-09-18T09:10:54.531Z,18.90
2018-09-18T09:13:24.717Z,19.00
2018-09-18T09:15:55.058Z,19.10
2018-09-18T09:18:25.462Z,19.20
2018-09-18T09:20:55.799Z,19.30
2018-09-18T09:23:26.073Z,19.50
2018-09-18T09:25:56.380Z,19.60
2018-09-18T09:28:26.747Z,19.80
2018-09-18T09:30:57.133Z,20.00
2018-09-18T09:33:27.468Z,20.20
2018-09-18T09:35:58.040Z,20.40
2018-09-18T09:38:28.418Z,20.60
2018-09-18T09:40:58.769Z,20.80
2018-09-18T09:43:29.031Z,21.00
2018-09-18T09:45:59.302Z,21.20
2018-09-18T09:48:33.384Z,21.50
2018-09-18T09:51:05.693Z,21.70
2018-09-18T09:53:35.993Z,21.80
2018-09-18T09:56:06.440Z,21.90
2018-09-18T09:58:36.777Z,22.10
2018-09-18T10:01:12.759Z,22.40
2018-09-18T10:03:43.080Z,22.70
2018-09-18T10:06:14.341Z,22.90
2018-09-18T10:08:44.640Z,23.00
2018-09-18T10:11:14.930Z,23.20
2018-09-18T10:13:45.253Z,23.30
2018-09-18T10:16:15.573Z,23.50
2018-09-18T10:18:45.869Z,23.50
2018-09-18T10:21:16.166Z,23.50
2018-09-18T10:23:46.458Z,23.50
2018-09-18T10:26:16.855Z,23.40
2018-09-18T10:28:47.305Z,23.30
2018-09-18T10:31:17.738Z,23.30
2018-09-18T10:33:48.073Z,23.40
2018-09-18T10:36:18.382Z,23.40
2018-09-18T10:38:48.733Z,23.50
2018-09-18T10:41:19.241Z,23.50
2018-09-18T10:43:49.442Z,23.60
2018-09-18T10:46:19.972Z,23.60
2018-09-18T10:48:52.427Z,23.70
2018-09-18T10:51:22.840Z,23.80
2018-09-18T10:53:53.181Z,24.00
2018-09-18T10:56:23.547Z,24.00
2018-09-18T10:58:53.939Z,24.20
2018-09-18T11:01:24.249Z,24.40
2018-09-18T11:03:55.594Z,24.60
2018-09-18T11:06:25.999Z,24.90
2018-09-18T11:08:56.324Z,25.10
2018-09-18T11:11:26.660Z,25.30
2018-09-18T11:13:57.005Z,25.70
2018-09-18T11:16:27.281Z,26.10
2018-09-18T11:18:57.600Z,26.50
2018-09-18T11:21:27.950Z,26.90
2018-09-18T11:23:58.513Z,27.20
2018-09-18T11:26:28.769Z,27.50
2018-09-18T11:28:59.316Z,28.00
2018-09-18T11:31:29.743Z,28.40
2018-09-18T11:34:00.036Z,28.60
2018-09-18T11:36:30.381Z,28.90
2018-09-18T11:39:00.735Z,29.10
2018-09-18T11:41:31.060Z,29.10
2018-09-18T11:44:01.427Z,29.30
2018-09-18T11:46:32.211Z,29.10
2018-09-18T11:49:02.629Z,28.80
2018-09-18T11:51:32.939Z,28.30
2018-09-18T11:54:03.333Z,27.70
2018-09-18T11:56:33.761Z,27.30
2018-09-18T11:59:04.086Z,27.00
2018-09-18T12:01:34.525Z,26.70
2018-09-18T12:04:04.885Z,26.60
2018-09-18T12:06:35.249Z,26.50
2018-09-18T12:09:08.092Z,26.40
2018-09-18T12:11:38.453Z,26.20
2018-09-18T12:14:08.803Z,26.20
2018-09-18T12:16:39.111Z,26.20
2018-09-18T12:19:09.436Z,26.10
2018-09-18T12:22:06.181Z,26.00
2018-09-18T12:24:36.597Z,26.00
2018-09-18T12:27:07.947Z,26.00
2018-09-18T12:29:38.269Z,26.10
2018-09-18T12:32:08.719Z,26.20
2018-09-18T12:34:39.270Z,26.30
2018-09-18T12:37:09.962Z,26.30
2018-09-18T12:39:40.621Z,26.40
2018-09-18T12:42:11.090Z,26.70
2018-09-18T12:44:41.411Z,27.00
2018-09-18T12:47:11.873Z,27.40
2018-09-18T12:49:42.149Z,27.70
2018-09-18T12:52:12.467Z,28.00
2018-09-18T12:54:42.798Z,28.00
2018-09-18T12:57:13.311Z,28.00
2018-09-18T12:59:43.715Z,27.90
2018-09-18T13:02:14.673Z,27.90
2018-09-18T13:04:45.086Z,27.70
2018-09-18T13:07:15.391Z,27.60
2018-09-18T13:09:45.693Z,27.50
2018-09-18T13:12:16.071Z,27.40
2018-09-18T13:14:46.413Z,27.10
2018-09-18T13:17:17.827Z,26.70
2018-09-18T13:19:48.144Z,26.50
2018-09-18T13:22:18.409Z,26.10
2018-09-18T13:24:48.673Z,25.80
2018-09-18T13:27:20.237Z,25.60
2018-09-18T13:29:50.607Z,25.40
2018-09-18T13:32:21.086Z,25.30
2018-09-18T13:34:51.350Z,25.20
2018-09-18T13:37:21.669Z,25.20
2018-09-18T13:39:51.983Z,25.10
2018-09-18T13:42:23.021Z,25.00
2018-09-18T13:44:53.363Z,25.20
2018-09-18T13:47:23.761Z,25.10
2018-09-18T13:49:54.161Z,25.00
2018-09-18T13:52:25.620Z,24.90
2018-09-18T13:54:56.002Z,24.80
2018-09-18T13:57:26.437Z,24.80
2018-09-18T13:59:56.862Z,24.90
2018-09-18T14:02:27.452Z,24.90
2018-09-18T14:04:58.030Z,24.90
2018-09-18T14:07:28.334Z,25.00
2018-09-18T14:09:58.851Z,24.90
2018-09-18T14:12:29.173Z,24.90
2018-09-18T14:14:59.681Z,24.90
2018-09-18T14:17:29.910Z,25.00
2018-09-18T14:20:00.305Z,24.90
2018-09-18T14:22:30.621Z,24.90
2018-09-18T14:25:00.964Z,25.00
2018-09-18T14:27:31.308Z,25.00
2018-09-18T14:30:01.671Z,25.00
2018-09-18T14:32:31.978Z,25.10
2018-09-18T14:35:02.610Z,25.10
2018-09-18T14:37:32.954Z,25.10
2018-09-18T14:40:03.648Z,25.10
2018-09-18T14:42:34.015Z,25.10
2018-09-18T14:45:04.913Z,25.10
2018-09-18T14:47:35.296Z,25.30
2018-09-18T14:50:05.813Z,25.30
2018-09-18T14:52:36.193Z,25.40
2018-09-18T14:55:06.928Z,25.30
2018-09-18T14:57:37.268Z,25.30
2018-09-18T15:00:07.700Z,25.30
2018-09-18T15:02:38.008Z,25.50
2018-09-18T15:05:08.341Z,25.60
2018-09-18T15:07:38.622Z,25.80
2018-09-18T15:10:08.925Z,25.80
2018-09-18T15:12:39.228Z,25.90
2018-09-18T15:15:09.542Z,26.00
2018-09-18T15:17:39.878Z,26.00
2018-09-18T15:20:10.385Z,26.10
2018-09-18T15:22:40.885Z,26.20
2018-09-18T15:25:11.297Z,26.50
2018-09-18T15:27:41.751Z,26.80
2018-09-18T15:30:12.077Z,27.00
2018-09-18T15:32:42.542Z,27.30
2018-09-18T15:35:13.293Z,27.60
2018-09-18T15:37:43.588Z,28.00
2018-09-18T15:40:13.958Z,28.40
2018-09-18T15:42:44.433Z,28.60
2018-09-18T15:45:14.915Z,28.80
2018-09-18T15:47:45.412Z,28.80
2018-09-18T15:50:15.783Z,29.10
2018-09-18T15:52:46.219Z,29.40
2018-09-18T15:55:16.708Z,29.50
2018-09-18T15:57:47.004Z,29.40
2018-09-18T16:00:17.616Z,29.00
2018-09-18T16:02:47.953Z,28.20
2018-09-18T16:05:18.302Z,27.40
2018-09-18T16:07:48.805Z,26.80
2018-09-18T16:10:19.422Z,26.00
2018-09-18T16:12:49.767Z,25.50
2018-09-18T16:15:20.145Z,25.20
2018-09-18T16:17:50.511Z,24.90
2018-09-18T16:20:20.843Z,24.70
2018-09-18T16:22:51.278Z,24.60
2018-09-18T16:25:21.675Z,24.40
2018-09-18T16:27:51.964Z,24.10
2018-09-18T16:30:22.356Z,23.80
2018-09-18T16:32:53.287Z,23.60
2018-09-18T16:35:23.602Z,23.30
2018-09-18T16:37:54.023Z,23.00
2018-09-18T16:40:24.519Z,22.80
2018-09-18T16:42:54.825Z,22.60
2018-09-18T16:45:25.197Z,22.40
2018-09-18T16:47:55.562Z,22.30
2018-09-18T16:50:26.285Z,22.10
2018-09-18T16:52:57.198Z,21.90
2018-09-18T16:55:27.567Z,21.70
2018-09-18T16:57:57.927Z,21.60
2018-09-18T17:00:28.444Z,21.30
2018-09-18T17:02:58.745Z,21.20
2018-09-18T17:05:29.128Z,21.00
2018-09-18T17:08:00.129Z,20.80
2018-09-18T17:10:31.066Z,20.70
2018-09-18T17:13:02.260Z,20.50
2018-09-18T17:15:32.677Z,20.40
2018-09-18T17:18:03.421Z,20.30
2018-09-18T17:20:33.779Z,20.00
2018-09-18T17:23:04.244Z,19.90
2018-09-18T17:25:34.681Z,19.70
2018-09-18T17:28:05.471Z,19.60
2018-09-18T17:30:35.842Z,19.50
2018-09-18T17:33:06.784Z,19.40
2018-09-18T17:35:37.558Z,19.30
2018-09-18T17:38:08.021Z,19.20
2018-09-18T17:40:38.808Z,19.10
2018-09-18T17:43:09.308Z,19.10
2018-09-18T17:45:39.721Z,19.00
2018-09-18T17:48:10.622Z,18.90
2018-09-18T17:50:41.296Z,18.80
2018-09-18T17:53:12.255Z,18.70
2018-09-18T17:55:42.783Z,18.70
2018-09-18T17:58:13.551Z,18.60
2018-09-18T18:00:44.226Z,18.50
2018-09-18T18:03:15.102Z,18.40
2018-09-18T18:05:45.919Z,18.40
2018-09-18T18:08:16.897Z,18.30
2018-09-18T18:10:48.183Z,18.30
2018-09-18T18:13:19.142Z,18.20
2018-09-18T18:15:49.951Z,18.20
2018-09-18T18:18:21.604Z,18.10
2018-09-18T18:20:52.357Z,18.00
2018-09-18T18:23:22.915Z,18.00
2018-09-18T18:25:53.398Z,18.00
2018-09-18T18:28:24.171Z,17.90
2018-09-18T18:30:54.647Z,17.80
2018-09-18T18:33:25.677Z,17.80
2018-09-18T18:35:56.133Z,17.70
2018-09-18T18:38:27.220Z,17.60
2018-09-18T18:40:58.094Z,17.60
2018-09-18T18:43:29.218Z,17.50
2018-09-18T18:45:59.749Z,17.50
2018-09-18T18:48:30.595Z,17.50
2018-09-18T18:51:01.138Z,17.40
2018-09-18T18:53:31.930Z,17.30
2018-09-18T18:56:02.498Z,17.30
2018-09-18T18:58:33.159Z,17.30
2018-09-18T19:01:03.668Z,17.20
2018-09-18T19:03:34.292Z,17.20
2018-09-18T19:06:04.816Z,17.10
2018-09-18T19:08:35.540Z,17.10
2018-09-18T19:11:06.047Z,17.10
2018-09-18T19:13:36.923Z,17.00
2018-09-18T19:16:08.100Z,16.90
2018-09-18T19:18:39.483Z,16.90
2018-09-18T19:21:10.276Z,16.90
2018-09-18T19:23:42.078Z,16.80
2018-09-18T19:26:12.753Z,16.70
2018-09-18T19:28:43.382Z,16.60
2018-09-18T19:31:14.588Z,16.60
2018-09-18T19:33:45.610Z,16.50
2018-09-18T19:36:16.283Z,16.50
2018-09-18T19:38:47.701Z,16.50
2018-09-18T19:41:18.267Z,16.50
2018-09-18T19:43:50.665Z,16.40
2018-09-18T19:46:21.377Z,16.40
2018-09-18T19:48:52.721Z,16.40
2018-09-18T19:51:23.660Z,16.40
2018-09-18T19:53:54.231Z,16.40
2018-09-18T19:56:24.736Z,16.30
2018-09-18T19:58:56.260Z,16.30
2018-09-18T20:01:26.820Z,16.20
2018-09-18T20:03:57.331Z,16.10
2018-09-18T20:06:28.369Z,16.10
2018-09-18T20:08:59.595Z,16.10
2018-09-18T20:11:30.329Z,16.00
2018-09-18T20:14:01.441Z,16.00
2018-09-18T20:16:31.937Z,16.00
2018-09-18T20:19:02.876Z,16.00
2018-09-18T20:21:33.571Z,15.90
2018-09-18T20:24:04.531Z,15.80
2018-09-18T20:26:35.259Z,15.80
2018-09-18T20:29:06.065Z,15.80
2018-09-18T20:31:36.600Z,15.80
2018-09-18T20:34:07.587Z,15.70
2018-09-18T20:36:38.053Z,15.70
2018-09-18T20:39:10.897Z,15.70
2018-09-18T20:41:41.405Z,15.70
2018-09-18T20:44:12.798Z,15.60
2018-09-18T20:46:43.274Z,15.60
2018-09-18T20:49:14.030Z,15.60
2018-09-18T20:51:44.452Z,15.50
2018-09-18T20:54:15.361Z,15.50
2018-09-18T20:56:45.677Z,15.50
2018-09-18T20:59:15.950Z,15.40
2018-09-18T21:01:46.389Z,15.40
2018-09-18T21:04:16.680Z,15.40
2018-09-18T21:06:47.015Z,15.30
2018-09-18T21:09:18.062Z,15.20
2018-09-18T21:11:48.331Z,15.20
2018-09-18T21:14:18.703Z,15.20
2018-09-18T21:16:49.029Z,15.00
2018-09-18T21:19:19.372Z,15.00
2018-09-18T21:21:49.736Z,14.90
2018-09-18T21:24:20.011Z,14.90
2018-09-18T21:26:50.368Z,14.90
2018-09-18T21:29:20.753Z,14.80
2018-09-18T21:31:51.073Z,14.80
2018-09-18T21:34:21.418Z,14.80
2018-09-18T21:36:51.762Z,14.80
2018-09-18T21:39:22.057Z,14.80
2018-09-18T21:41:52.396Z,14.80
2018-09-18T21:44:22.717Z,14.70
2018-09-18T21:46:53.052Z,14.70
2018-09-18T21:49:23.591Z,14.60
2018-09-18T21:51:53.904Z,14.50
2018-09-18T21:54:24.269Z,14.50
2018-09-18T21:56:54.517Z,14.50
2018-09-18T21:59:24.857Z,14.50
2018-09-18T22:01:55.163Z,14.50
2018-09-18T22:04:25.533Z,14.50
2018-09-18T22:06:55.807Z,14.50
2018-09-18T22:09:26.092Z,14.40
2018-09-18T22:11:56.408Z,14.40
2018-09-18T22:14:26.930Z,14.40
2018-09-18T22:16:57.298Z,14.40
2018-09-18T22:19:27.601Z,14.30
2018-09-18T22:21:57.940Z,14.30
2018-09-18T22:24:28.391Z,14.30
2018-09-18T22:26:58.650Z,14.20
2018-09-18T22:29:28.960Z,14.10
2018-09-18T22:31:59.241Z,14.10
2018-09-18T22:34:29.553Z,14.00
2018-09-18T22:36:59.826Z,13.90
2018-09-18T22:39:30.141Z,13.80
2018-09-18T22:42:00.440Z,13.90
2018-09-18T22:44:30.703Z,13.90
2018-09-18T22:47:01.024Z,13.90
2018-09-18T22:49:31.352Z,14.00
2018-09-18T22:52:01.716Z,14.00
2018-09-18T22:54:32.013Z,14.00
2018-09-18T22:57:02.406Z,13.90
2018-09-18T22:59:32.699Z,13.90
2018-09-18T23:02:03.158Z,13.80
2018-09-18T23:04:33.438Z,13.80
2018-09-18T23:07:03.770Z,13.80
2018-09-18T23:09:34.079Z,13.80
2018-09-18T23:12:04.463Z,13.80
2018-09-18T23:14:34.733Z,13.80
2018-09-18T23:17:05.079Z,13.80
2018-09-18T23:19:35.402Z,13.70
2018-09-18T23:22:06.077Z,13.70
2018-09-18T23:24:36.386Z,13.70
2018-09-18T23:27:06.980Z,13.70
2018-09-18T23:29:37.409Z,13.70
2018-09-18T23:32:07.871Z,13.70
2018-09-18T23:34:38.185Z,13.70
2018-09-18T23:37:08.475Z,13.70
2018-09-18T23:39:38.775Z,13.60
2018-09-18T23:42:09.156Z,13.60
2018-09-18T23:44:39.405Z,13.50
2018-09-18T23:47:09.720Z,13.50
2018-09-18T23:49:39.994Z,13.50
2018-09-18T23:52:10.284Z,13.50
2018-09-18T23:54:40.622Z,13.50
2018-09-18T23:57:10.878Z,13.50
2018-09-18T23:59:41.189Z,13.40
